Terminal Aerodrome Forecast
Issued by NWS

Home | Current Version | Previous Version | Text Only | Print | Product List | Glossary On
Versions: 1 2 3 4 5 6 7 8 9 10 11 12 13 14
000
FTUS45 KABQ 211734
TAFFMN
TAF
KFMN 211734Z 2118/2218 VRB05KT P6SM FEW080 SCT110
     FM212100 25010KT P6SM VCTS SCT080CB
      TEMPO 2122/2201 VRB25G35KT -TSRA BKN070CB
     FM220100 05008KT P6SM VCSH BKN100
     FM220600 08005KT P6SM SCT120=

USA.gov is the U.S. government's official web portal to all federal, state and local government web resources and services.